sensor_id;sensor_type;location;lat;lon;timestamp;temperature;humidity
14154;DHT22;7157;53.144;7.570;2023-04-25T00:04:59;8.31;93.62
14154;DHT22;7157;53.144;7.570;2023-04-25T00:15:04;8.03;93.39
14154;DHT22;7157;53.144;7.570;2023-04-25T00:25:09;8.11;93.88
14154;DHT22;7157;53.144;7.570;2023-04-25T00:35:11;8.11;94.24
14154;DHT22;7157;53.144;7.570;2023-04-25T00:45:19;7.90;92.52
14154;DHT22;7157;53.144;7.570;2023-04-25T00:55:23;7.81;88.53
14154;DHT22;7157;53.144;7.570;2023-04-25T01:05:27;8.00;89.25
14154;DHT22;7157;53.144;7.570;2023-04-25T01:15:30;7.79;87.33
14154;DHT22;7157;53.144;7.570;2023-04-25T01:25:34;7.88;87.07
14154;DHT22;7157;53.144;7.570;2023-04-25T01:35:37;7.69;83.56
14154;DHT22;7157;53.144;7.570;2023-04-25T01:45:43;7.85;87.14
14154;DHT22;7157;53.144;7.570;2023-04-25T01:55:46;7.65;81.72
14154;DHT22;7157;53.144;7.570;2023-04-25T02:05:50;7.69;83.32
14154;DHT22;7157;53.144;7.570;2023-04-25T02:15:53;7.71;84.23
14154;DHT22;7157;53.144;7.570;2023-04-25T02:25:58;7.75;80.46
14154;DHT22;7157;53.144;7.570;2023-04-25T02:36:01;7.68;79.52
14154;DHT22;7157;53.144;7.570;2023-04-25T02:46:06;7.61;80.28
14154;DHT22;7157;53.144;7.570;2023-04-25T02:56:09;7.59;78.30
14154;DHT22;7157;53.144;7.570;2023-04-25T03:06:14;7.46;78.05
14154;DHT22;7157;53.144;7.570;2023-04-25T03:16:17;7.41;76.16
14154;DHT22;7157;53.144;7.570;2023-04-25T03:26:21;6.99;83.00
14154;DHT22;7157;53.144;7.570;2023-04-25T03:36:24;6.56;85.63
14154;DHT22;7157;53.144;7.570;2023-04-25T03:46:28;6.02;88.81
14154;DHT22;7157;53.144;7.570;2023-04-25T03:56:31;6.16;88.18
14154;DHT22;7157;53.144;7.570;2023-04-25T04:06:35;6.01;88.70
14154;DHT22;7157;53.144;7.570;2023-04-25T04:16:38;6.02;89.85
14154;DHT22;7157;53.144;7.570;2023-04-25T04:26:42;5.92;90.93
14154;DHT22;7157;53.144;7.570;2023-04-25T04:36:47;6.04;89.38
14154;DHT22;7157;53.144;7.570;2023-04-25T04:46:51;6.01;88.81
14154;DHT22;7157;53.144;7.570;2023-04-25T04:56:54;6.42;87.94
14154;DHT22;7157;53.144;7.570;2023-04-25T05:06:59;6.41;86.67
14154;DHT22;7157;53.144;7.570;2023-04-25T05:17:02;6.09;91.65
14154;DHT22;7157;53.144;7.570;2023-04-25T05:27:07;5.51;95.08
14154;DHT22;7157;53.144;7.570;2023-04-25T05:37:10;5.82;94.69
14154;DHT22;7157;53.144;7.570;2023-04-25T05:47:14;6.25;90.85
14154;DHT22;7157;53.144;7.570;2023-04-25T05:57:22;6.65;88.95
14154;DHT22;7157;53.144;7.570;2023-04-25T06:07:26;6.83;86.63
14154;DHT22;7157;53.144;7.570;2023-04-25T06:17:29;6.81;86.70
14154;DHT22;7157;53.144;7.570;2023-04-25T06:27:34;7.42;86.19
14154;DHT22;7157;53.144;7.570;2023-04-25T06:37:36;7.82;80.16
14154;DHT22;7157;53.144;7.570;2023-04-25T06:47:40;7.60;80.43
14154;DHT22;7157;53.144;7.570;2023-04-25T06:57:43;7.67;81.61
14154;DHT22;7157;53.144;7.570;2023-04-25T07:07:47;7.72;81.82
14154;DHT22;7157;53.144;7.570;2023-04-25T07:17:50;7.81;82.08
14154;DHT22;7157;53.144;7.570;2023-04-25T07:27:54;8.68;79.21
14154;DHT22;7157;53.144;7.570;2023-04-25T07:37:57;9.66;73.27
14154;DHT22;7157;53.144;7.570;2023-04-25T07:48:02;9.10;72.09
14154;DHT22;7157;53.144;7.570;2023-04-25T07:58:05;8.30;76.16
14154;DHT22;7157;53.144;7.570;2023-04-25T08:08:09;7.52;85.39
14154;DHT22;7157;53.144;7.570;2023-04-25T08:18:12;8.19;83.87
14154;DHT22;7157;53.144;7.570;2023-04-25T08:28:19;8.90;81.23
14154;DHT22;7157;53.144;7.570;2023-04-25T08:38:22;9.57;78.28
14154;DHT22;7157;53.144;7.570;2023-04-25T08:48:27;9.92;66.28
14154;DHT22;7157;53.144;7.570;2023-04-25T08:58:30;9.90;62.61
14154;DHT22;7157;53.144;7.570;2023-04-25T09:08:36;10.44;61.15
14154;DHT22;7157;53.144;7.570;2023-04-25T09:18:39;9.36;71.51
14154;DHT22;7157;53.144;7.570;2023-04-25T09:29:04;8.50;72.88
14154;DHT22;7157;53.144;7.570;2023-04-25T09:39:12;9.96;68.48
14154;DHT22;7157;53.144;7.570;2023-04-25T09:49:19;9.75;61.50
14154;DHT22;7157;53.144;7.570;2023-04-25T09:59:22;9.67;63.40
14154;DHT22;7157;53.144;7.570;2023-04-25T10:09:28;10.87;57.76
14154;DHT22;7157;53.144;7.570;2023-04-25T10:19:33;8.77;73.48
14154;DHT22;7157;53.144;7.570;2023-04-25T10:29:38;10.39;66.04
14154;DHT22;7157;53.144;7.570;2023-04-25T10:39:41;11.75;57.87
14154;DHT22;7157;53.144;7.570;2023-04-25T10:49:50;11.69;52.20
14154;DHT22;7157;53.144;7.570;2023-04-25T10:59:53;12.07;53.97
14154;DHT22;7157;53.144;7.570;2023-04-25T11:09:57;12.08;48.43
14154;DHT22;7157;53.144;7.570;2023-04-25T11:20:03;12.63;53.71
14154;DHT22;7157;53.144;7.570;2023-04-25T11:30:15;15.47;39.97
14154;DHT22;7157;53.144;7.570;2023-04-25T11:40:18;12.97;46.73
14154;DHT22;7157;53.144;7.570;2023-04-25T11:50:22;15.92;37.48
14154;DHT22;7157;53.144;7.570;2023-04-25T12:00:26;20.75;30.24
14154;DHT22;7157;53.144;7.570;2023-04-25T12:10:30;23.84;26.52
14154;DHT22;7157;53.144;7.570;2023-04-25T12:20:33;15.62;41.66
14154;DHT22;7157;53.144;7.570;2023-04-25T12:30:56;20.19;29.77
14154;DHT22;7157;53.144;7.570;2023-04-25T12:41:00;22.08;26.07
14154;DHT22;7157;53.144;7.570;2023-04-25T12:51:04;19.08;31.06
14154;DHT22;7157;53.144;7.570;2023-04-25T13:01:07;12.04;53.64
14154;DHT22;7157;53.144;7.570;2023-04-25T13:11:11;10.56;56.78
14154;DHT22;7157;53.144;7.570;2023-04-25T13:21:16;14.07;42.41
14154;DHT22;7157;53.144;7.570;2023-04-25T13:31:20;16.81;34.95
14154;DHT22;7157;53.144;7.570;2023-04-25T13:41:23;19.23;35.67
14154;DHT22;7157;53.144;7.570;2023-04-25T13:51:27;16.86;39.01
14154;DHT22;7157;53.144;7.570;2023-04-25T14:01:33;16.03;38.77
14154;DHT22;7157;53.144;7.570;2023-04-25T14:11:38;11.78;53.31
14154;DHT22;7157;53.144;7.570;2023-04-25T14:21:41;11.99;54.44
14154;DHT22;7157;53.144;7.570;2023-04-25T14:31:45;14.97;42.11
14154;DHT22;7157;53.144;7.570;2023-04-25T14:41:48;12.79;46.87
14154;DHT22;7157;53.144;7.570;2023-04-25T14:51:53;13.38;41.93
14154;DHT22;7157;53.144;7.570;2023-04-25T15:01:56;16.08;39.98
14154;DHT22;7157;53.144;7.570;2023-04-25T15:12:01;13.64;42.98
14154;DHT22;7157;53.144;7.570;2023-04-25T15:22:04;12.51;44.12
14154;DHT22;7157;53.144;7.570;2023-04-25T15:32:09;13.39;40.84
14154;DHT22;7157;53.144;7.570;2023-04-25T15:42:12;13.21;44.89
14154;DHT22;7157;53.144;7.570;2023-04-25T15:52:16;12.91;52.24
14154;DHT22;7157;53.144;7.570;2023-04-25T16:02:22;11.00;53.62
14154;DHT22;7157;53.144;7.570;2023-04-25T16:12:27;11.73;52.32
14154;DHT22;7157;53.144;7.570;2023-04-25T16:22:30;11.96;51.17
14154;DHT22;7157;53.144;7.570;2023-04-25T16:32:35;11.84;51.53
14154;DHT22;7157;53.144;7.570;2023-04-25T16:42:38;11.61;52.94
14154;DHT22;7157;53.144;7.570;2023-04-25T16:52:43;11.00;58.32
14154;DHT22;7157;53.144;7.570;2023-04-25T17:02:46;11.07;57.05
14154;DHT22;7157;53.144;7.570;2023-04-25T17:12:50;10.98;57.16
14154;DHT22;7157;53.144;7.570;2023-04-25T17:22:54;10.45;57.81
14154;DHT22;7157;53.144;7.570;2023-04-25T17:32:59;10.06;58.96
14154;DHT22;7157;53.144;7.570;2023-04-25T17:43:02;9.72;59.33
14154;DHT22;7157;53.144;7.570;2023-04-25T17:53:06;9.30;63.67
14154;DHT22;7157;53.144;7.570;2023-04-25T18:03:09;7.99;68.62
14154;DHT22;7157;53.144;7.570;2023-04-25T18:13:14;7.73;72.28
14154;DHT22;7157;53.144;7.570;2023-04-25T18:23:17;8.02;70.15
14154;DHT22;7157;53.144;7.570;2023-04-25T18:33:22;8.02;70.72
14154;DHT22;7157;53.144;7.570;2023-04-25T18:43:25;7.58;74.73
14154;DHT22;7157;53.144;7.570;2023-04-25T18:53:29;7.53;74.67
14154;DHT22;7157;53.144;7.570;2023-04-25T19:03:32;7.42;74.25
14154;DHT22;7157;53.144;7.570;2023-04-25T19:13:36;6.78;83.35
14154;DHT22;7157;53.144;7.570;2023-04-25T19:23:39;6.14;78.08
14154;DHT22;7157;53.144;7.570;2023-04-25T19:33:43;5.94;85.20
14154;DHT22;7157;53.144;7.570;2023-04-25T19:43:48;6.06;86.50
14154;DHT22;7157;53.144;7.570;2023-04-25T19:53:53;6.02;88.28
14154;DHT22;7157;53.144;7.570;2023-04-25T20:03:56;6.00;88.80
14154;DHT22;7157;53.144;7.570;2023-04-25T20:14:00;5.75;89.31
14154;DHT22;7157;53.144;7.570;2023-04-25T20:24:04;5.78;88.83
14154;DHT22;7157;53.144;7.570;2023-04-25T20:34:08;5.60;89.48
14154;DHT22;7157;53.144;7.570;2023-04-25T20:44:11;5.89;88.56
14154;DHT22;7157;53.144;7.570;2023-04-25T20:54:15;5.91;87.25
14154;DHT22;7157;53.144;7.570;2023-04-25T21:04:18;5.74;87.93
14154;DHT22;7157;53.144;7.570;2023-04-25T21:14:23;5.47;88.06
14154;DHT22;7157;53.144;7.570;2023-04-25T21:24:26;5.61;87.77
14154;DHT22;7157;53.144;7.570;2023-04-25T21:34:32;5.51;86.81
14154;DHT22;7157;53.144;7.570;2023-04-25T21:44:35;5.47;87.26
14154;DHT22;7157;53.144;7.570;2023-04-25T21:54:40;5.53;87.93
14154;DHT22;7157;53.144;7.570;2023-04-25T22:04:43;5.35;89.03
14154;DHT22;7157;53.144;7.570;2023-04-25T22:14:49;5.03;90.34
14154;DHT22;7157;53.144;7.570;2023-04-25T22:24:52;4.92;90.81
14154;DHT22;7157;53.144;7.570;2023-04-25T22:34:56;4.82;90.89
14154;DHT22;7157;53.144;7.570;2023-04-25T22:44:59;4.88;90.90
14154;DHT22;7157;53.144;7.570;2023-04-25T22:55:04;5.06;90.53
14154;DHT22;7157;53.144;7.570;2023-04-25T23:05:08;5.25;90.28
14154;DHT22;7157;53.144;7.570;2023-04-25T23:15:12;5.21;90.92
14154;DHT22;7157;53.144;7.570;2023-04-25T23:25:15;5.26;90.79
14154;DHT22;7157;53.144;7.570;2023-04-25T23:35:20;5.06;91.62
14154;DHT22;7157;53.144;7.570;2023-04-25T23:45:22;4.94;91.98
14154;DHT22;7157;53.144;7.570;2023-04-25T23:55:27;5.05;91.79
